sensor_id;sensor_type;location;lat;lon;timestamp;temperature;humidity
14741;DHT22;7462;53.530;9.414;2023-04-03T00:01:01;3.40;99.90
14741;DHT22;7462;53.530;9.414;2023-04-03T00:03:30;3.40;99.90
14741;DHT22;7462;53.530;9.414;2023-04-03T00:05:58;3.40;99.90
14741;DHT22;7462;53.530;9.414;2023-04-03T00:08:26;3.40;99.90
14741;DHT22;7462;53.530;9.414;2023-04-03T00:10:54;3.40;99.90
14741;DHT22;7462;53.530;9.414;2023-04-03T00:13:23;3.30;99.90
14741;DHT22;7462;53.530;9.414;2023-04-03T00:15:53;3.30;99.90
14741;DHT22;7462;53.530;9.414;2023-04-03T00:18:21;3.20;99.90
14741;DHT22;7462;53.530;9.414;2023-04-03T00:20:50;3.10;99.90
14741;DHT22;7462;53.530;9.414;2023-04-03T00:23:18;3.00;99.90
14741;DHT22;7462;53.530;9.414;2023-04-03T00:25:46;2.80;99.90
14741;DHT22;7462;53.530;9.414;2023-04-03T00:28:14;2.80;99.90
14741;DHT22;7462;53.530;9.414;2023-04-03T00:30:42;2.80;99.90
14741;DHT22;7462;53.530;9.414;2023-04-03T00:33:12;2.90;99.90
14741;DHT22;7462;53.530;9.414;2023-04-03T00:35:40;2.80;99.90
14741;DHT22;7462;53.530;9.414;2023-04-03T00:38:09;2.90;99.90
14741;DHT22;7462;53.530;9.414;2023-04-03T00:40:39;2.90;99.90
14741;DHT22;7462;53.530;9.414;2023-04-03T00:43:12;2.80;99.90
14741;DHT22;7462;53.530;9.414;2023-04-03T00:45:42;2.90;99.90
14741;DHT22;7462;53.530;9.414;2023-04-03T00:48:15;2.90;99.90
14741;DHT22;7462;53.530;9.414;2023-04-03T00:50:44;2.90;99.90
14741;DHT22;7462;53.530;9.414;2023-04-03T00:53:18;2.90;99.90
14741;DHT22;7462;53.530;9.414;2023-04-03T00:55:47;2.80;99.90
14741;DHT22;7462;53.530;9.414;2023-04-03T00:58:17;2.90;99.90
14741;DHT22;7462;53.530;9.414;2023-04-03T01:00:50;2.70;99.90
14741;DHT22;7462;53.530;9.414;2023-04-03T01:03:24;2.70;99.90
14741;DHT22;7462;53.530;9.414;2023-04-03T01:05:54;2.70;99.90
14741;DHT22;7462;53.530;9.414;2023-04-03T01:08:22;2.70;99.90
14741;DHT22;7462;53.530;9.414;2023-04-03T01:10:50;2.60;99.90
14741;DHT22;7462;53.530;9.414;2023-04-03T01:13:23;2.60;99.90
14741;DHT22;7462;53.530;9.414;2023-04-03T01:15:52;2.60;99.90
14741;DHT22;7462;53.530;9.414;2023-04-03T01:18:21;2.50;99.90
14741;DHT22;7462;53.530;9.414;2023-04-03T01:24:09;2.60;99.90
14741;DHT22;7462;53.530;9.414;2023-04-03T01:26:39;2.50;99.90
14741;DHT22;7462;53.530;9.414;2023-04-03T01:29:07;2.60;99.90
14741;DHT22;7462;53.530;9.414;2023-04-03T01:31:50;2.60;99.90
14741;DHT22;7462;53.530;9.414;2023-04-03T01:34:19;2.50;99.90
14741;DHT22;7462;53.530;9.414;2023-04-03T01:36:48;2.40;99.90
14741;DHT22;7462;53.530;9.414;2023-04-03T01:39:17;2.30;99.90
14741;DHT22;7462;53.530;9.414;2023-04-03T01:41:45;2.20;99.90
14741;DHT22;7462;53.530;9.414;2023-04-03T01:44:20;2.30;99.90
14741;DHT22;7462;53.530;9.414;2023-04-03T01:46:50;2.50;99.90
14741;DHT22;7462;53.530;9.414;2023-04-03T01:49:20;2.80;99.90
14741;DHT22;7462;53.530;9.414;2023-04-03T01:51:48;2.60;99.90
14741;DHT22;7462;53.530;9.414;2023-04-03T01:54:16;2.40;99.90
14741;DHT22;7462;53.530;9.414;2023-04-03T01:56:44;2.30;99.90
14741;DHT22;7462;53.530;9.414;2023-04-03T01:59:13;2.20;99.90
14741;DHT22;7462;53.530;9.414;2023-04-03T02:01:43;2.20;99.90
14741;DHT22;7462;53.530;9.414;2023-04-03T02:04:14;2.10;99.90
14741;DHT22;7462;53.530;9.414;2023-04-03T02:06:42;2.10;99.90
14741;DHT22;7462;53.530;9.414;2023-04-03T02:09:10;2.20;99.90
14741;DHT22;7462;53.530;9.414;2023-04-03T02:11:38;2.10;99.90
14741;DHT22;7462;53.530;9.414;2023-04-03T02:14:06;2.20;99.90
14741;DHT22;7462;53.530;9.414;2023-04-03T02:16:34;2.50;99.90
14741;DHT22;7462;53.530;9.414;2023-04-03T02:19:03;2.60;99.90
14741;DHT22;7462;53.530;9.414;2023-04-03T02:21:33;2.60;99.90
14741;DHT22;7462;53.530;9.414;2023-04-03T02:24:01;2.70;99.90
14741;DHT22;7462;53.530;9.414;2023-04-03T02:26:29;2.90;99.90
14741;DHT22;7462;53.530;9.414;2023-04-03T02:28:57;2.90;99.90
14741;DHT22;7462;53.530;9.414;2023-04-03T02:31:25;2.80;99.90
14741;DHT22;7462;53.530;9.414;2023-04-03T02:33:53;2.90;99.90
14741;DHT22;7462;53.530;9.414;2023-04-03T02:36:22;2.80;99.90
14741;DHT22;7462;53.530;9.414;2023-04-03T02:38:56;2.40;99.90
14741;DHT22;7462;53.530;9.414;2023-04-03T02:41:24;2.20;99.90
14741;DHT22;7462;53.530;9.414;2023-04-03T02:43:58;2.00;99.90
14741;DHT22;7462;53.530;9.414;2023-04-03T02:46:26;1.90;99.90
14741;DHT22;7462;53.530;9.414;2023-04-03T02:48:55;2.00;99.90
14741;DHT22;7462;53.530;9.414;2023-04-03T02:51:24;2.20;99.90
14741;DHT22;7462;53.530;9.414;2023-04-03T02:53:53;2.10;99.90
14741;DHT22;7462;53.530;9.414;2023-04-03T02:56:26;2.10;99.90
14741;DHT22;7462;53.530;9.414;2023-04-03T02:58:54;2.40;99.90
14741;DHT22;7462;53.530;9.414;2023-04-03T03:01:23;2.40;99.90
14741;DHT22;7462;53.530;9.414;2023-04-03T03:03:51;2.50;99.90
14741;DHT22;7462;53.530;9.414;2023-04-03T03:06:19;2.40;99.90
14741;DHT22;7462;53.530;9.414;2023-04-03T03:08:47;2.10;99.90
14741;DHT22;7462;53.530;9.414;2023-04-03T03:11:16;2.20;99.90
14741;DHT22;7462;53.530;9.414;2023-04-03T03:13:45;2.30;99.90
14741;DHT22;7462;53.530;9.414;2023-04-03T03:16:13;2.40;99.90
14741;DHT22;7462;53.530;9.414;2023-04-03T03:18:42;2.20;99.90
14741;DHT22;7462;53.530;9.414;2023-04-03T03:21:10;2.40;99.90
14741;DHT22;7462;53.530;9.414;2023-04-03T03:23:39;2.40;99.90
14741;DHT22;7462;53.530;9.414;2023-04-03T03:26:09;2.30;99.90
14741;DHT22;7462;53.530;9.414;2023-04-03T03:28:39;2.20;99.90
14741;DHT22;7462;53.530;9.414;2023-04-03T03:31:09;2.30;99.90
14741;DHT22;7462;53.530;9.414;2023-04-03T03:33:39;2.20;99.90
14741;DHT22;7462;53.530;9.414;2023-04-03T03:36:08;2.30;99.90
14741;DHT22;7462;53.530;9.414;2023-04-03T03:38:36;2.20;99.90
14741;DHT22;7462;53.530;9.414;2023-04-03T03:41:04;2.20;99.90
14741;DHT22;7462;53.530;9.414;2023-04-03T03:43:34;2.20;99.90
14741;DHT22;7462;53.530;9.414;2023-04-03T03:46:05;2.40;99.90
14741;DHT22;7462;53.530;9.414;2023-04-03T03:48:34;2.40;99.90
14741;DHT22;7462;53.530;9.414;2023-04-03T03:51:03;2.30;99.90
14741;DHT22;7462;53.530;9.414;2023-04-03T03:53:34;2.20;99.90
14741;DHT22;7462;53.530;9.414;2023-04-03T03:56:06;2.10;99.90
14741;DHT22;7462;53.530;9.414;2023-04-03T03:58:36;2.30;99.90
14741;DHT22;7462;53.530;9.414;2023-04-03T04:01:05;2.10;99.90
14741;DHT22;7462;53.530;9.414;2023-04-03T04:03:40;2.10;99.90
14741;DHT22;7462;53.530;9.414;2023-04-03T04:06:11;2.00;99.90
14741;DHT22;7462;53.530;9.414;2023-04-03T04:08:40;2.00;99.90
14741;DHT22;7462;53.530;9.414;2023-04-03T04:11:10;2.40;99.90
14741;DHT22;7462;53.530;9.414;2023-04-03T04:13:39;2.10;99.90
14741;DHT22;7462;53.530;9.414;2023-04-03T04:16:10;1.90;99.90
14741;DHT22;7462;53.530;9.414;2023-04-03T04:18:39;2.10;99.90
14741;DHT22;7462;53.530;9.414;2023-04-03T04:21:08;2.00;99.90
14741;DHT22;7462;53.530;9.414;2023-04-03T04:23:37;2.10;99.90
14741;DHT22;7462;53.530;9.414;2023-04-03T04:26:06;2.20;99.90
14741;DHT22;7462;53.530;9.414;2023-04-03T04:28:37;2.30;99.90
14741;DHT22;7462;53.530;9.414;2023-04-03T04:31:06;2.00;99.90
14741;DHT22;7462;53.530;9.414;2023-04-03T04:33:35;2.20;99.90
14741;DHT22;7462;53.530;9.414;2023-04-03T04:36:06;2.10;99.90
14741;DHT22;7462;53.530;9.414;2023-04-03T04:38:35;2.20;99.90
14741;DHT22;7462;53.530;9.414;2023-04-03T04:41:03;2.10;99.90
14741;DHT22;7462;53.530;9.414;2023-04-03T04:43:31;1.90;99.90
14741;DHT22;7462;53.530;9.414;2023-04-03T04:46:01;2.10;99.90
14741;DHT22;7462;53.530;9.414;2023-04-03T04:48:32;2.00;99.90
14741;DHT22;7462;53.530;9.414;2023-04-03T04:51:01;1.90;99.90
14741;DHT22;7462;53.530;9.414;2023-04-03T04:53:31;1.90;99.90
14741;DHT22;7462;53.530;9.414;2023-04-03T04:55:59;2.10;99.90
14741;DHT22;7462;53.530;9.414;2023-04-03T04:58:28;1.80;99.90
14741;DHT22;7462;53.530;9.414;2023-04-03T05:01:01;1.80;99.90
14741;DHT22;7462;53.530;9.414;2023-04-03T05:03:30;1.90;99.90
14741;DHT22;7462;53.530;9.414;2023-04-03T05:05:59;2.00;99.90
14741;DHT22;7462;53.530;9.414;2023-04-03T05:08:31;2.00;99.90
14741;DHT22;7462;53.530;9.414;2023-04-03T05:11:00;2.20;99.90
14741;DHT22;7462;53.530;9.414;2023-04-03T05:13:31;2.20;99.90
14741;DHT22;7462;53.530;9.414;2023-04-03T05:15:59;2.10;99.90
14741;DHT22;7462;53.530;9.414;2023-04-03T05:18:28;2.20;99.90
14741;DHT22;7462;53.530;9.414;2023-04-03T05:20:59;2.10;99.90
14741;DHT22;7462;53.530;9.414;2023-04-03T05:23:27;2.10;99.90
14741;DHT22;7462;53.530;9.414;2023-04-03T05:25:58;2.00;99.90
14741;DHT22;7462;53.530;9.414;2023-04-03T05:28:28;2.10;99.90
14741;DHT22;7462;53.530;9.414;2023-04-03T05:30:57;2.20;99.90
14741;DHT22;7462;53.530;9.414;2023-04-03T05:33:30;2.30;99.90
14741;DHT22;7462;53.530;9.414;2023-04-03T05:36:02;2.30;99.90
14741;DHT22;7462;53.530;9.414;2023-04-03T05:38:33;2.30;99.90
14741;DHT22;7462;53.530;9.414;2023-04-03T05:41:03;2.40;99.90
14741;DHT22;7462;53.530;9.414;2023-04-03T05:43:31;2.50;99.90
14741;DHT22;7462;53.530;9.414;2023-04-03T05:46:01;2.60;99.90
14741;DHT22;7462;53.530;9.414;2023-04-03T05:48:30;2.70;99.90
14741;DHT22;7462;53.530;9.414;2023-04-03T05:50:58;2.90;99.90
14741;DHT22;7462;53.530;9.414;2023-04-03T05:53:29;3.10;99.90
14741;DHT22;7462;53.530;9.414;2023-04-03T05:56:04;3.10;99.90
14741;DHT22;7462;53.530;9.414;2023-04-03T05:58:37;3.00;99.90
14741;DHT22;7462;53.530;9.414;2023-04-03T06:01:05;2.90;99.90
14741;DHT22;7462;53.530;9.414;2023-04-03T06:03:35;3.00;99.90
14741;DHT22;7462;53.530;9.414;2023-04-03T06:06:06;3.00;99.90
14741;DHT22;7462;53.530;9.414;2023-04-03T06:08:34;3.00;99.90
14741;DHT22;7462;53.530;9.414;2023-04-03T06:11:04;3.00;99.90
14741;DHT22;7462;53.530;9.414;2023-04-03T06:13:32;3.10;99.90
14741;DHT22;7462;53.530;9.414;2023-04-03T06:16:01;3.30;99.90
14741;DHT22;7462;53.530;9.414;2023-04-03T06:18:31;3.40;99.90
14741;DHT22;7462;53.530;9.414;2023-04-03T06:20:59;3.40;99.90
14741;DHT22;7462;53.530;9.414;2023-04-03T06:23:27;3.50;99.90
14741;DHT22;7462;53.530;9.414;2023-04-03T06:25:55;3.60;99.90
14741;DHT22;7462;53.530;9.414;2023-04-03T06:28:25;3.70;99.90
14741;DHT22;7462;53.530;9.414;2023-04-03T06:30:54;3.90;99.90
14741;DHT22;7462;53.530;9.414;2023-04-03T06:33:22;4.20;99.90
14741;DHT22;7462;53.530;9.414;2023-04-03T06:35:54;4.50;99.90
14741;DHT22;7462;53.530;9.414;2023-04-03T06:38:23;4.70;99.90
14741;DHT22;7462;53.530;9.414;2023-04-03T06:40:51;4.90;99.90
14741;DHT22;7462;53.530;9.414;2023-04-03T06:43:20;5.00;99.90
14741;DHT22;7462;53.530;9.414;2023-04-03T06:45:54;5.10;99.90
14741;DHT22;7462;53.530;9.414;2023-04-03T06:48:22;5.20;99.90
14741;DHT22;7462;53.530;9.414;2023-04-03T06:50:50;5.40;99.90
14741;DHT22;7462;53.530;9.414;2023-04-03T06:53:18;5.40;99.90
14741;DHT22;7462;53.530;9.414;2023-04-03T06:55:46;5.70;99.90
14741;DHT22;7462;53.530;9.414;2023-04-03T06:58:15;5.90;99.90
14741;DHT22;7462;53.530;9.414;2023-04-03T07:00:45;6.00;99.90
14741;DHT22;7462;53.530;9.414;2023-04-03T07:03:15;6.10;99.90
14741;DHT22;7462;53.530;9.414;2023-04-03T07:05:43;6.20;99.90
14741;DHT22;7462;53.530;9.414;2023-04-03T07:08:12;6.30;99.90
14741;DHT22;7462;53.530;9.414;2023-04-03T07:10:40;6.30;99.90
14741;DHT22;7462;53.530;9.414;2023-04-03T07:13:08;6.50;99.90
14741;DHT22;7462;53.530;9.414;2023-04-03T07:15:36;6.70;99.90
14741;DHT22;7462;53.530;9.414;2023-04-03T07:18:05;6.80;99.90
14741;DHT22;7462;53.530;9.414;2023-04-03T07:20:34;7.00;99.90
14741;DHT22;7462;53.530;9.414;2023-04-03T07:23:03;7.10;99.90
14741;DHT22;7462;53.530;9.414;2023-04-03T07:25:31;7.20;99.90
14741;DHT22;7462;53.530;9.414;2023-04-03T07:28:00;7.30;99.90
14741;DHT22;7462;53.530;9.414;2023-04-03T07:30:28;7.40;99.90
14741;DHT22;7462;53.530;9.414;2023-04-03T07:32:56;7.60;99.90
14741;DHT22;7462;53.530;9.414;2023-04-03T07:35:25;7.70;99.90
14741;DHT22;7462;53.530;9.414;2023-04-03T07:37:54;7.90;99.90
14741;DHT22;7462;53.530;9.414;2023-04-03T07:40:22;8.00;99.90
14741;DHT22;7462;53.530;9.414;2023-04-03T07:42:50;8.10;99.90
14741;DHT22;7462;53.530;9.414;2023-04-03T07:45:19;8.10;99.90
14741;DHT22;7462;53.530;9.414;2023-04-03T07:47:47;8.20;99.90
14741;DHT22;7462;53.530;9.414;2023-04-03T07:50:15;8.40;99.90
14741;DHT22;7462;53.530;9.414;2023-04-03T07:52:43;8.50;99.90
14741;DHT22;7462;53.530;9.414;2023-04-03T07:55:13;8.30;99.90
14741;DHT22;7462;53.530;9.414;2023-04-03T07:57:42;8.40;99.90
14741;DHT22;7462;53.530;9.414;2023-04-03T08:00:11;8.60;99.90
14741;DHT22;7462;53.530;9.414;2023-04-03T08:02:40;8.80;99.90
14741;DHT22;7462;53.530;9.414;2023-04-03T08:05:09;9.00;99.90
14741;DHT22;7462;53.530;9.414;2023-04-03T08:07:37;9.30;99.90
14741;DHT22;7462;53.530;9.414;2023-04-03T08:10:06;9.40;99.90
14741;DHT22;7462;53.530;9.414;2023-04-03T08:12:37;9.60;99.90
14741;DHT22;7462;53.530;9.414;2023-04-03T08:15:06;9.40;99.90
14741;DHT22;7462;53.530;9.414;2023-04-03T08:17:35;9.20;99.90
14741;DHT22;7462;53.530;9.414;2023-04-03T08:20:04;9.30;99.90
14741;DHT22;7462;53.530;9.414;2023-04-03T08:22:33;9.50;99.90
14741;DHT22;7462;53.530;9.414;2023-04-03T08:25:01;9.60;99.90
14741;DHT22;7462;53.530;9.414;2023-04-03T08:27:29;9.50;99.90
14741;DHT22;7462;53.530;9.414;2023-04-03T08:30:01;9.60;99.90
14741;DHT22;7462;53.530;9.414;2023-04-03T08:32:30;9.70;99.90
14741;DHT22;7462;53.530;9.414;2023-04-03T08:34:58;10.00;99.90
14741;DHT22;7462;53.530;9.414;2023-04-03T08:37:27;10.30;99.90
14741;DHT22;7462;53.530;9.414;2023-04-03T08:39:55;10.40;99.90
14741;DHT22;7462;53.530;9.414;2023-04-03T08:42:37;10.50;99.90
14741;DHT22;7462;53.530;9.414;2023-04-03T08:45:12;10.80;99.90
14741;DHT22;7462;53.530;9.414;2023-04-03T08:47:46;10.90;99.90
14741;DHT22;7462;53.530;9.414;2023-04-03T08:50:17;10.90;99.90
14741;DHT22;7462;53.530;9.414;2023-04-03T08:52:48;10.90;99.90
14741;DHT22;7462;53.530;9.414;2023-04-03T08:55:23;11.00;99.90
14741;DHT22;7462;53.530;9.414;2023-04-03T08:57:58;11.10;99.90
14741;DHT22;7462;53.530;9.414;2023-04-03T09:00:33;11.00;99.90
14741;DHT22;7462;53.530;9.414;2023-04-03T09:03:02;10.80;99.90
14741;DHT22;7462;53.530;9.414;2023-04-03T09:05:39;11.00;99.90
14741;DHT22;7462;53.530;9.414;2023-04-03T09:08:18;11.30;99.90
14741;DHT22;7462;53.530;9.414;2023-04-03T09:10:49;11.80;99.90
14741;DHT22;7462;53.530;9.414;2023-04-03T09:13:26;11.70;99.90
14741;DHT22;7462;53.530;9.414;2023-04-03T09:15:56;11.30;99.90
14741;DHT22;7462;53.530;9.414;2023-04-03T09:18:30;11.40;99.90
14741;DHT22;7462;53.530;9.414;2023-04-03T09:21:04;11.40;99.90
14741;DHT22;7462;53.530;9.414;2023-04-03T09:23:42;11.70;99.90
14741;DHT22;7462;53.530;9.414;2023-04-03T09:26:14;11.80;99.90
14741;DHT22;7462;53.530;9.414;2023-04-03T09:28:45;11.90;99.90
14741;DHT22;7462;53.530;9.414;2023-04-03T09:31:21;12.30;99.90
14741;DHT22;7462;53.530;9.414;2023-04-03T09:33:52;12.20;99.90
14741;DHT22;7462;53.530;9.414;2023-04-03T09:36:40;12.60;99.90
14741;DHT22;7462;53.530;9.414;2023-04-03T09:39:13;13.10;99.90
14741;DHT22;7462;53.530;9.414;2023-04-03T09:41:55;13.10;99.90
14741;DHT22;7462;53.530;9.414;2023-04-03T09:44:26;12.80;99.90
14741;DHT22;7462;53.530;9.414;2023-04-03T09:46:56;12.50;99.90
14741;DHT22;7462;53.530;9.414;2023-04-03T09:49:24;12.50;99.90
14741;DHT22;7462;53.530;9.414;2023-04-03T09:51:52;12.70;99.90
14741;DHT22;7462;53.530;9.414;2023-04-03T09:54:36;13.00;99.90
14741;DHT22;7462;53.530;9.414;2023-04-03T09:57:09;13.30;99.90
14741;DHT22;7462;53.530;9.414;2023-04-03T09:59:45;13.50;99.90
14741;DHT22;7462;53.530;9.414;2023-04-03T10:02:36;13.40;99.90
14741;DHT22;7462;53.530;9.414;2023-04-03T10:05:25;13.50;99.90
14741;DHT22;7462;53.530;9.414;2023-04-03T10:08:08;13.40;99.90
14741;DHT22;7462;53.530;9.414;2023-04-03T10:10:36;13.50;99.90
14741;DHT22;7462;53.530;9.414;2023-04-03T10:13:07;13.80;99.90
14741;DHT22;7462;53.530;9.414;2023-04-03T10:15:43;13.50;99.90
14741;DHT22;7462;53.530;9.414;2023-04-03T10:18:27;13.40;99.90
14741;DHT22;7462;53.530;9.414;2023-04-03T10:21:02;13.50;99.90
14741;DHT22;7462;53.530;9.414;2023-04-03T10:23:46;13.30;99.90
14741;DHT22;7462;53.530;9.414;2023-04-03T10:26:29;12.70;99.90
14741;DHT22;7462;53.530;9.414;2023-04-03T10:29:05;12.40;99.90
14741;DHT22;7462;53.530;9.414;2023-04-03T10:31:39;12.70;99.90
14741;DHT22;7462;53.530;9.414;2023-04-03T10:34:13;13.60;99.90
14741;DHT22;7462;53.530;9.414;2023-04-03T10:36:52;13.90;99.90
14741;DHT22;7462;53.530;9.414;2023-04-03T10:39:30;13.80;99.80
14741;DHT22;7462;53.530;9.414;2023-04-03T10:42:05;13.80;99.40
14741;DHT22;7462;53.530;9.414;2023-04-03T10:44:56;13.10;98.70
14741;DHT22;7462;53.530;9.414;2023-04-03T10:47:32;13.70;99.90
14741;DHT22;7462;53.530;9.414;2023-04-03T10:50:26;14.00;99.90
14741;DHT22;7462;53.530;9.414;2023-04-03T10:53:01;13.70;99.90
14741;DHT22;7462;53.530;9.414;2023-04-03T10:55:36;13.80;99.90
14741;DHT22;7462;53.530;9.414;2023-04-03T10:58:16;13.50;99.50
14741;DHT22;7462;53.530;9.414;2023-04-03T11:00:48;13.00;98.50
14741;DHT22;7462;53.530;9.414;2023-04-03T11:03:27;13.20;98.90
14741;DHT22;7462;53.530;9.414;2023-04-03T11:06:01;13.40;99.20
14741;DHT22;7462;53.530;9.414;2023-04-03T11:08:34;13.50;99.90
14741;DHT22;7462;53.530;9.414;2023-04-03T11:11:07;13.40;98.70
14741;DHT22;7462;53.530;9.414;2023-04-03T11:13:41;12.90;98.50
14741;DHT22;7462;53.530;9.414;2023-04-03T11:16:13;13.30;99.90
14741;DHT22;7462;53.530;9.414;2023-04-03T11:18:47;13.60;99.80
14741;DHT22;7462;53.530;9.414;2023-04-03T11:21:21;13.90;97.70
14741;DHT22;7462;53.530;9.414;2023-04-03T11:23:52;14.10;99.60
14741;DHT22;7462;53.530;9.414;2023-04-03T11:26:22;13.70;98.10
14741;DHT22;7462;53.530;9.414;2023-04-03T11:28:55;12.90;98.60
14741;DHT22;7462;53.530;9.414;2023-04-03T11:31:43;12.60;98.40
14741;DHT22;7462;53.530;9.414;2023-04-03T11:34:26;13.00;99.90
14741;DHT22;7462;53.530;9.414;2023-04-03T11:37:05;13.10;99.80
14741;DHT22;7462;53.530;9.414;2023-04-03T11:39:36;13.40;98.40
14741;DHT22;7462;53.530;9.414;2023-04-03T11:42:25;13.60;99.70
14741;DHT22;7462;53.530;9.414;2023-04-03T11:45:16;12.90;99.50
14741;DHT22;7462;53.530;9.414;2023-04-03T11:47:46;12.90;99.60
14741;DHT22;7462;53.530;9.414;2023-04-03T11:50:41;12.40;99.10
14741;DHT22;7462;53.530;9.414;2023-04-03T11:53:32;11.90;99.90
14741;DHT22;7462;53.530;9.414;2023-04-03T11:56:03;12.10;99.90
14741;DHT22;7462;53.530;9.414;2023-04-03T11:58:32;11.70;99.90
14741;DHT22;7462;53.530;9.414;2023-04-03T12:01:03;11.20;99.90
14741;DHT22;7462;53.530;9.414;2023-04-03T12:06:59;10.60;99.90
14741;DHT22;7462;53.530;9.414;2023-04-03T12:09:56;10.40;99.90
14741;DHT22;7462;53.530;9.414;2023-04-03T12:12:33;10.40;99.90
14741;DHT22;7462;53.530;9.414;2023-04-03T12:15:23;10.40;99.90
14741;DHT22;7462;53.530;9.414;2023-04-03T12:17:53;10.50;99.90
14741;DHT22;7462;53.530;9.414;2023-04-03T12:20:46;10.30;99.90
14741;DHT22;7462;53.530;9.414;2023-04-03T12:23:29;10.50;99.90
14741;DHT22;7462;53.530;9.414;2023-04-03T12:26:06;10.70;99.90
14741;DHT22;7462;53.530;9.414;2023-04-03T12:28:47;10.40;99.90
14741;DHT22;7462;53.530;9.414;2023-04-03T12:31:16;10.40;99.90
14741;DHT22;7462;53.530;9.414;2023-04-03T12:34:01;10.20;99.90
14741;DHT22;7462;53.530;9.414;2023-04-03T12:36:41;10.10;99.90
14741;DHT22;7462;53.530;9.414;2023-04-03T12:39:21;10.40;99.90
14741;DHT22;7462;53.530;9.414;2023-04-03T12:41:57;10.90;99.90
14741;DHT22;7462;53.530;9.414;2023-04-03T12:44:40;11.10;99.90
14741;DHT22;7462;53.530;9.414;2023-04-03T12:47:31;11.20;99.90
14741;DHT22;7462;53.530;9.414;2023-04-03T12:50:03;11.20;99.90
14741;DHT22;7462;53.530;9.414;2023-04-03T12:52:37;11.30;99.90
14741;DHT22;7462;53.530;9.414;2023-04-03T12:55:14;11.00;99.90
14741;DHT22;7462;53.530;9.414;2023-04-03T12:57:44;10.70;99.90
14741;DHT22;7462;53.530;9.414;2023-04-03T13:00:27;10.70;99.90
14741;DHT22;7462;53.530;9.414;2023-04-03T13:02:55;10.50;99.90
14741;DHT22;7462;53.530;9.414;2023-04-03T13:05:24;10.20;99.90
14741;DHT22;7462;53.530;9.414;2023-04-03T13:07:58;10.20;99.90
14741;DHT22;7462;53.530;9.414;2023-04-03T13:10:26;10.50;99.90
14741;DHT22;7462;53.530;9.414;2023-04-03T13:12:57;10.40;99.90
14741;DHT22;7462;53.530;9.414;2023-04-03T13:15:29;10.20;99.90
14741;DHT22;7462;53.530;9.414;2023-04-03T13:17:58;10.00;99.90
14741;DHT22;7462;53.530;9.414;2023-04-03T13:20:28;10.00;99.90
14741;DHT22;7462;53.530;9.414;2023-04-03T13:22:59;9.80;99.90
14741;DHT22;7462;53.530;9.414;2023-04-03T13:25:31;9.80;99.90
14741;DHT22;7462;53.530;9.414;2023-04-03T13:28:04;10.00;99.90
14741;DHT22;7462;53.530;9.414;2023-04-03T13:30:41;10.10;99.90
14741;DHT22;7462;53.530;9.414;2023-04-03T13:33:23;10.60;99.90
14741;DHT22;7462;53.530;9.414;2023-04-03T13:35:55;10.90;99.90
14741;DHT22;7462;53.530;9.414;2023-04-03T13:38:26;10.60;99.90
14741;DHT22;7462;53.530;9.414;2023-04-03T13:40:56;10.80;99.90
14741;DHT22;7462;53.530;9.414;2023-04-03T13:43:28;10.70;99.90
14741;DHT22;7462;53.530;9.414;2023-04-03T13:46:01;10.70;99.90
14741;DHT22;7462;53.530;9.414;2023-04-03T13:48:37;10.30;99.90
14741;DHT22;7462;53.530;9.414;2023-04-03T13:51:17;10.00;99.90
14741;DHT22;7462;53.530;9.414;2023-04-03T13:53:49;10.20;99.90
14741;DHT22;7462;53.530;9.414;2023-04-03T13:56:22;10.40;99.90
14741;DHT22;7462;53.530;9.414;2023-04-03T13:58:57;10.50;99.90
14741;DHT22;7462;53.530;9.414;2023-04-03T14:01:43;10.30;99.90
14741;DHT22;7462;53.530;9.414;2023-04-03T14:04:17;10.20;99.90
14741;DHT22;7462;53.530;9.414;2023-04-03T14:06:46;9.60;99.90
14741;DHT22;7462;53.530;9.414;2023-04-03T14:09:15;9.50;99.90
14741;DHT22;7462;53.530;9.414;2023-04-03T14:11:44;9.40;99.90
14741;DHT22;7462;53.530;9.414;2023-04-03T14:14:17;9.30;99.90
14741;DHT22;7462;53.530;9.414;2023-04-03T14:16:47;9.10;99.90
14741;DHT22;7462;53.530;9.414;2023-04-03T14:19:21;9.40;99.90
14741;DHT22;7462;53.530;9.414;2023-04-03T14:21:51;9.60;99.90
14741;DHT22;7462;53.530;9.414;2023-04-03T14:24:20;9.70;99.90
14741;DHT22;7462;53.530;9.414;2023-04-03T14:26:49;9.70;99.90
14741;DHT22;7462;53.530;9.414;2023-04-03T14:29:19;9.80;99.90
14741;DHT22;7462;53.530;9.414;2023-04-03T14:31:49;9.70;99.90
14741;DHT22;7462;53.530;9.414;2023-04-03T14:34:29;9.60;99.90
14741;DHT22;7462;53.530;9.414;2023-04-03T14:36:58;9.50;99.90
14741;DHT22;7462;53.530;9.414;2023-04-03T14:39:26;9.30;99.90
14741;DHT22;7462;53.530;9.414;2023-04-03T14:41:54;9.20;99.90
14741;DHT22;7462;53.530;9.414;2023-04-03T14:44:23;9.10;99.90
14741;DHT22;7462;53.530;9.414;2023-04-03T14:46:51;8.90;99.90
14741;DHT22;7462;53.530;9.414;2023-04-03T14:49:25;9.00;99.90
14741;DHT22;7462;53.530;9.414;2023-04-03T14:51:55;8.90;99.90
14741;DHT22;7462;53.530;9.414;2023-04-03T14:54:24;8.90;99.90
14741;DHT22;7462;53.530;9.414;2023-04-03T14:56:55;8.90;99.90
14741;DHT22;7462;53.530;9.414;2023-04-03T14:59:27;9.00;99.90
14741;DHT22;7462;53.530;9.414;2023-04-03T15:01:55;9.00;99.90
14741;DHT22;7462;53.530;9.414;2023-04-03T15:04:24;9.00;99.90
14741;DHT22;7462;53.530;9.414;2023-04-03T15:06:52;9.00;99.90
14741;DHT22;7462;53.530;9.414;2023-04-03T15:09:22;9.00;99.90
14741;DHT22;7462;53.530;9.414;2023-04-03T15:11:52;9.00;99.90
14741;DHT22;7462;53.530;9.414;2023-04-03T15:14:21;9.00;99.90
14741;DHT22;7462;53.530;9.414;2023-04-03T15:17:04;8.90;99.90
14741;DHT22;7462;53.530;9.414;2023-04-03T15:19:37;9.00;99.90
14741;DHT22;7462;53.530;9.414;2023-04-03T15:22:05;9.00;99.90
14741;DHT22;7462;53.530;9.414;2023-04-03T15:24:33;8.90;99.90
14741;DHT22;7462;53.530;9.414;2023-04-03T15:27:01;8.80;99.90
14741;DHT22;7462;53.530;9.414;2023-04-03T15:29:30;8.80;99.90
14741;DHT22;7462;53.530;9.414;2023-04-03T15:31:58;8.80;99.90
14741;DHT22;7462;53.530;9.414;2023-04-03T15:34:27;8.70;99.90
14741;DHT22;7462;53.530;9.414;2023-04-03T15:36:55;8.50;99.90
14741;DHT22;7462;53.530;9.414;2023-04-03T15:39:25;8.40;99.90
14741;DHT22;7462;53.530;9.414;2023-04-03T15:41:53;8.30;99.90
14741;DHT22;7462;53.530;9.414;2023-04-03T15:44:22;8.30;99.90
14741;DHT22;7462;53.530;9.414;2023-04-03T15:46:50;8.30;99.90
14741;DHT22;7462;53.530;9.414;2023-04-03T15:49:19;8.30;99.90
14741;DHT22;7462;53.530;9.414;2023-04-03T15:51:49;8.50;99.90
14741;DHT22;7462;53.530;9.414;2023-04-03T15:54:18;8.50;99.90
14741;DHT22;7462;53.530;9.414;2023-04-03T15:56:46;8.50;99.90
14741;DHT22;7462;53.530;9.414;2023-04-03T15:59:15;8.40;99.90
14741;DHT22;7462;53.530;9.414;2023-04-03T16:01:44;8.40;99.90
14741;DHT22;7462;53.530;9.414;2023-04-03T16:04:13;8.40;99.90
14741;DHT22;7462;53.530;9.414;2023-04-03T16:06:41;8.20;99.90
14741;DHT22;7462;53.530;9.414;2023-04-03T16:09:11;8.10;99.90
14741;DHT22;7462;53.530;9.414;2023-04-03T16:11:39;8.10;99.90
14741;DHT22;7462;53.530;9.414;2023-04-03T16:14:07;8.10;99.90
14741;DHT22;7462;53.530;9.414;2023-04-03T16:16:36;8.10;99.90
14741;DHT22;7462;53.530;9.414;2023-04-03T16:19:04;8.30;99.90
14741;DHT22;7462;53.530;9.414;2023-04-03T16:21:33;8.20;99.90
14741;DHT22;7462;53.530;9.414;2023-04-03T16:24:01;8.10;99.90
14741;DHT22;7462;53.530;9.414;2023-04-03T16:26:31;8.00;99.90
14741;DHT22;7462;53.530;9.414;2023-04-03T16:28:59;8.00;99.90
14741;DHT22;7462;53.530;9.414;2023-04-03T16:31:27;8.00;99.90